Terminal Aerodrome Forecast
Issued by NWS

Home | Current Version | Previous Version | Text Only | Print | Product List | Glossary Off
Versions: 1 2 3 4 5 6 7 8 9 10 11 12 13 14

000
FTUS43 KIWX 251700
TAFSBN
TAF
KSBN 251720Z 2518/2618 26012G20KT P6SM OVC012
     FM252100 25012KT P6SM SCT015 BKN100
      TEMPO 2521/2523 BKN015
     FM260100 26006KT P6SM SCT025 OVC070
     FM261000 32010KT P6SM BKN035=

USA.gov is the U.S. government's official web portal to all federal, state and local government web resources and services.